createdAt,value
2022-07-30T00:01:57.276Z,99898.22
2022-07-30T00:04:24.939Z,99900.91
2022-07-30T00:06:53.205Z,99892.84
2022-07-30T00:09:21.012Z,99887.50
2022-07-30T00:11:50.684Z,99888.44
2022-07-30T00:14:23.376Z,99889.31
2022-07-30T00:16:50.993Z,99884.88
2022-07-30T00:19:21.021Z,99885.72
2022-07-30T00:21:50.930Z,99885.69
2022-07-30T00:24:18.609Z,99879.50
2022-07-30T00:26:46.730Z,99875.09
2022-07-30T00:29:14.386Z,99874.22
2022-07-30T00:31:44.387Z,99869.75
2022-07-30T00:34:13.104Z,99875.03
2022-07-30T00:36:41.010Z,99873.19
2022-07-30T00:39:11.454Z,99875.88
2022-07-30T00:42:01.523Z,99872.28
2022-07-30T00:44:30.283Z,99881.94
2022-07-30T00:46:58.979Z,99877.50
2022-07-30T00:49:27.989Z,99875.81
2022-07-30T00:51:58.750Z,99874.09
2022-07-30T00:54:29.375Z,99874.97
2022-07-30T00:56:58.217Z,99883.84
2022-07-30T00:59:31.647Z,99882.97
2022-07-30T01:02:01.740Z,99884.69
2022-07-30T01:04:32.246Z,99889.09
2022-07-30T01:06:59.862Z,99891.75
2022-07-30T01:09:27.349Z,99891.81
2022-07-30T01:11:55.896Z,99894.50
2022-07-30T01:14:23.573Z,99898.06
2022-07-30T01:16:51.415Z,99896.34
2022-07-30T01:19:46.335Z,99901.59
2022-07-30T01:22:30.734Z,99899.91
2022-07-30T01:25:21.054Z,99896.38
2022-07-30T01:28:10.052Z,99893.75
2022-07-30T01:30:42.724Z,99891.09
2022-07-30T01:33:19.929Z,99884.06
2022-07-30T01:35:50.725Z,99883.19
2022-07-30T01:38:25.681Z,99890.22
2022-07-30T01:40:56.035Z,99876.88
2022-07-30T01:43:29.118Z,99877.81
2022-07-30T01:45:58.886Z,99870.78
2022-07-30T01:48:32.389Z,99868.16
2022-07-30T01:51:05.539Z,99868.94
2022-07-30T01:53:40.887Z,99871.56
2022-07-30T01:56:16.673Z,99857.41
2022-07-30T01:58:49.099Z,99854.72
2022-07-30T02:01:28.111Z,99855.53
2022-07-30T02:04:04.120Z,99855.53
2022-07-30T02:07:00.339Z,99854.63
2022-07-30T02:09:52.276Z,99857.25
2022-07-30T02:12:31.562Z,99858.97
2022-07-30T02:15:40.785Z,99860.72
2022-07-30T02:18:45.321Z,99840.28
2022-07-30T02:21:20.090Z,99846.44
2022-07-30T02:23:50.667Z,99838.44
2022-07-30T02:26:24.763Z,99844.59
2022-07-30T02:29:02.237Z,99839.25
2022-07-30T02:31:35.538Z,99836.44
2022-07-30T02:34:07.086Z,99835.56
2022-07-30T02:36:37.435Z,99838.44
2022-07-30T02:39:06.868Z,99826.97
2022-07-30T02:41:38.694Z,99834.88
2022-07-30T02:44:10.373Z,99825.97
2022-07-30T02:46:42.104Z,99830.38
2022-07-30T02:49:35.495Z,99825.94
2022-07-30T02:52:13.210Z,99831.28
2022-07-30T02:54:44.549Z,99824.97
2022-07-30T02:57:21.327Z,99809.94
2022-07-30T02:59:54.451Z,99815.19
2022-07-30T03:02:29.314Z,99814.34
2022-07-30T03:05:08.801Z,99822.34
2022-07-30T03:07:40.878Z,99822.25
2022-07-30T03:10:12.243Z,99824.84
2022-07-30T03:12:46.293Z,99821.25
2022-07-30T03:15:14.945Z,99823.84
2022-07-30T03:17:50.818Z,99816.78
2022-07-30T03:20:27.335Z,99816.81
2022-07-30T03:23:01.840Z,99804.47
2022-07-30T03:25:32.401Z,99808.84
2022-07-30T03:28:09.670Z,99808.84
2022-07-30T03:30:37.933Z,99816.75
2022-07-30T03:33:07.085Z,99807.84
2022-07-30T03:35:35.624Z,99803.25
2022-07-30T03:38:03.847Z,99809.41
2022-07-30T03:40:34.652Z,99811.03
2022-07-30T03:43:06.296Z,99823.38
2022-07-30T03:45:58.664Z,99823.47
2022-07-30T03:48:29.487Z,99825.19
2022-07-30T03:51:05.722Z,99820.81
2022-07-30T03:53:34.360Z,99820.75
2022-07-30T03:56:34.451Z,99820.66
2022-07-30T03:59:14.894Z,99829.59
2022-07-30T04:01:46.506Z,99830.38
2022-07-30T04:04:22.593Z,99829.53
2022-07-30T04:06:52.638Z,99824.28
2022-07-30T04:09:26.730Z,99824.34
2022-07-30T04:11:58.697Z,99824.22
2022-07-30T04:14:45.611Z,99829.63
2022-07-30T04:17:36.339Z,99826.94
2022-07-30T04:20:24.669Z,99831.34
2022-07-30T04:22:58.076Z,99830.47
2022-07-30T04:25:26.848Z,99836.69
2022-07-30T04:28:03.034Z,99834.91
2022-07-30T04:30:35.492Z,99843.75
2022-07-30T04:33:09.378Z,99838.50
2022-07-30T04:35:55.692Z,99840.31
2022-07-30T04:38:33.121Z,99843.06
2022-07-30T04:41:01.189Z,99848.44
2022-07-30T04:43:33.551Z,99854.66
2022-07-30T04:46:15.262Z,99855.56
2022-07-30T04:49:07.346Z,99858.25
2022-07-30T04:51:38.623Z,99865.41
2022-07-30T04:54:16.236Z,99865.50
2022-07-30T04:56:54.199Z,99867.31
2022-07-30T04:59:26.433Z,99877.19
2022-07-30T05:01:56.738Z,99870.31
2022-07-30T05:04:28.574Z,99865.97
2022-07-30T05:06:58.758Z,99864.19
2022-07-30T05:09:28.849Z,99854.53
2022-07-30T05:11:57.981Z,99853.66
2022-07-30T05:14:29.955Z,99856.25
2022-07-30T05:16:58.560Z,99858.09
2022-07-30T05:19:26.811Z,99857.34
2022-07-30T05:21:57.352Z,99864.44
2022-07-30T05:24:27.490Z,99859.16
2022-07-30T05:26:57.671Z,99868.06
2022-07-30T05:29:28.933Z,99865.47
2022-07-30T05:32:07.613Z,99865.53
2022-07-30T05:34:36.589Z,99867.34
2022-07-30T05:37:05.036Z,99872.66
2022-07-30T05:39:34.083Z,99870.00
2022-07-30T05:42:35.963Z,99876.22
2022-07-30T05:45:07.328Z,99876.25
2022-07-30T05:47:35.035Z,99873.59
2022-07-30T05:50:05.186Z,99879.78
2022-07-30T05:52:34.043Z,99874.66
2022-07-30T05:55:12.817Z,99869.38
2022-07-30T05:57:53.278Z,99873.91
2022-07-30T06:00:21.346Z,99873.94
2022-07-30T06:02:53.050Z,99873.25
2022-07-30T06:05:26.506Z,99870.69
2022-07-30T06:07:56.484Z,99879.56
2022-07-30T06:10:26.259Z,99875.16
2022-07-30T06:12:54.400Z,99877.81
2022-07-30T06:15:26.037Z,99876.88
2022-07-30T06:18:02.008Z,99876.06
2022-07-30T06:20:54.155Z,99881.41
2022-07-30T06:23:33.310Z,99880.59
2022-07-30T06:26:21.387Z,99875.28
2022-07-30T06:28:48.703Z,99878.00
2022-07-30T06:31:29.793Z,99882.50
2022-07-30T06:33:57.253Z,99885.06
2022-07-30T06:36:26.678Z,99888.78
2022-07-30T06:39:00.679Z,99884.44
2022-07-30T06:41:48.485Z,99888.91
2022-07-30T06:44:16.106Z,99895.13
2022-07-30T06:47:07.165Z,99883.69
2022-07-30T06:49:37.759Z,99891.78
2022-07-30T06:52:06.741Z,99890.94
2022-07-30T06:54:34.317Z,99894.44
2022-07-30T06:57:07.078Z,99891.88
2022-07-30T06:59:56.965Z,99897.25
2022-07-30T07:02:44.733Z,99890.16
2022-07-30T07:05:14.658Z,99886.63
2022-07-30T07:07:58.362Z,99886.66
2022-07-30T07:10:29.076Z,99889.34
2022-07-30T07:13:25.745Z,99890.31
2022-07-30T07:15:53.048Z,99894.75
2022-07-30T07:18:22.916Z,99887.69
2022-07-30T07:20:55.434Z,99893.91
2022-07-30T07:23:24.074Z,99885.97
2022-07-30T07:25:55.812Z,99892.22
2022-07-30T07:28:29.975Z,99882.47
2022-07-30T07:31:02.040Z,99883.41
2022-07-30T07:33:33.452Z,99874.66
2022-07-30T07:36:02.286Z,99883.56
2022-07-30T07:38:33.205Z,99875.59
2022-07-30T07:41:01.101Z,99888.09
2022-07-30T07:43:29.205Z,99874.81
2022-07-30T07:46:02.422Z,99873.88
2022-07-30T07:48:33.639Z,99873.91
2022-07-30T07:51:47.767Z,99882.75
2022-07-30T07:54:22.612Z,99881.00
2022-07-30T07:57:03.191Z,99875.72
2022-07-30T07:59:40.131Z,99876.63
2022-07-30T08:02:20.179Z,99879.31
2022-07-30T08:05:06.751Z,99874.00
2022-07-30T08:07:55.084Z,99872.19
2022-07-30T08:10:50.249Z,99878.41
2022-07-30T08:13:49.320Z,99876.66
2022-07-30T08:16:47.217Z,99874.00
2022-07-30T08:19:33.924Z,99871.34
2022-07-30T08:22:17.994Z,99873.16
2022-07-30T08:24:45.897Z,99871.38
2022-07-30T08:27:23.030Z,99872.25
2022-07-30T08:29:50.506Z,99880.25
2022-07-30T08:32:25.581Z,99886.47
2022-07-30T08:34:53.535Z,99881.13
2022-07-30T08:37:22.120Z,99879.31
2022-07-30T08:39:49.537Z,99878.41
2022-07-30T08:42:17.403Z,99883.72
2022-07-30T08:44:46.824Z,99874.00
2022-07-30T08:47:21.387Z,99876.56
2022-07-30T08:50:05.315Z,99870.31
2022-07-30T08:52:37.970Z,99879.28
2022-07-30T08:55:08.202Z,99871.28
2022-07-30T08:57:38.621Z,99879.19
2022-07-30T09:00:08.724Z,99882.66
2022-07-30T09:02:36.484Z,99884.38
2022-07-30T09:05:07.648Z,99881.69
2022-07-30T09:07:36.648Z,99882.56
2022-07-30T09:10:07.934Z,99877.09
2022-07-30T09:12:45.686Z,99884.13
2022-07-30T09:15:20.471Z,99883.44
2022-07-30T09:18:03.051Z,99878.03
2022-07-30T09:20:38.698Z,99893.06
2022-07-30T09:23:09.258Z,99884.13
2022-07-30T09:25:56.961Z,99887.72
2022-07-30T09:28:43.142Z,99882.38
2022-07-30T09:34:38.625Z,99879.59
2022-07-30T09:37:19.928Z,99881.38
2022-07-30T09:40:15.015Z,99886.72
2022-07-30T09:43:12.631Z,99885.81
2022-07-30T09:46:01.591Z,99890.06
2022-07-30T09:48:29.261Z,99869.59
2022-07-30T09:50:57.554Z,99871.28
2022-07-30T09:53:26.507Z,99869.25
2022-07-30T09:55:58.142Z,99876.50
2022-07-30T09:58:45.566Z,99878.31
2022-07-30T10:01:14.849Z,99870.22
2022-07-30T10:04:02.291Z,99858.41
2022-07-30T10:07:02.158Z,99855.50
2022-07-30T10:09:47.086Z,99852.78
2022-07-30T10:12:17.819Z,99841.78
2022-07-30T10:14:54.012Z,99848.81
2022-07-30T10:17:26.018Z,99851.31
2022-07-30T10:20:19.029Z,99849.28
2022-07-30T10:23:19.324Z,99848.09
2022-07-30T10:26:09.132Z,99838.22
2022-07-30T10:28:57.847Z,99839.78
2022-07-30T10:31:47.978Z,99838.81
2022-07-30T10:34:23.685Z,99838.44
2022-07-30T10:37:01.813Z,99832.81
2022-07-30T10:39:47.191Z,99825.41
2022-07-30T10:42:42.141Z,99836.06
2022-07-30T10:45:23.242Z,99836.28
2022-07-30T10:47:53.313Z,99830.53
2022-07-30T10:50:27.193Z,99828.47
2022-07-30T10:53:03.496Z,99823.41
2022-07-30T10:55:38.847Z,99826.28
2022-07-30T10:58:14.252Z,99832.94
2022-07-30T11:00:56.953Z,99830.88
2022-07-30T11:03:40.966Z,99822.38
2022-07-30T11:06:15.338Z,99823.13
2022-07-30T11:08:48.501Z,99817.56
2022-07-30T11:12:01.160Z,99817.53
2022-07-30T11:14:20.340Z,99822.69
2022-07-30T11:16:51.378Z,99825.50
2022-07-30T11:19:56.433Z,99821.31
2022-07-30T11:22:44.695Z,99821.09
2022-07-30T11:25:50.428Z,99820.47
2022-07-30T11:28:50.701Z,99817.22
2022-07-30T11:31:56.504Z,99811.13
2022-07-30T11:34:24.068Z,99800.69
2022-07-30T11:37:21.773Z,99802.41
2022-07-30T11:40:09.342Z,99802.34
2022-07-30T11:42:44.960Z,99799.00
2022-07-30T11:45:18.756Z,99792.06
2022-07-30T11:47:59.845Z,99796.16
2022-07-30T11:50:34.944Z,99799.06
2022-07-30T11:53:06.638Z,99790.78
2022-07-30T11:55:44.448Z,99783.56
2022-07-30T11:58:34.460Z,99786.47
2022-07-30T12:01:17.384Z,99784.66
2022-07-30T12:03:46.567Z,99777.13
2022-07-30T12:06:20.203Z,99781.38
2022-07-30T12:08:58.175Z,99782.03
2022-07-30T12:11:35.258Z,99778.31
2022-07-30T12:14:06.830Z,99777.84
2022-07-30T12:16:34.738Z,99776.41
2022-07-30T12:19:06.447Z,99774.31
2022-07-30T12:21:35.053Z,99770.66
2022-07-30T12:24:13.760Z,99768.72
2022-07-30T12:26:45.116Z,99769.66
2022-07-30T12:29:15.827Z,99769.25
2022-07-30T12:31:46.252Z,99770.19
2022-07-30T12:34:26.746Z,99761.41
2022-07-30T12:36:55.525Z,99762.81
2022-07-30T12:39:29.863Z,99758.00
2022-07-30T12:42:06.545Z,99751.53
2022-07-30T12:44:48.137Z,99757.25
2022-07-30T12:47:39.806Z,99743.66
2022-07-30T12:50:18.702Z,99763.06
2022-07-30T12:52:51.853Z,99748.75
2022-07-30T12:55:33.042Z,99747.84
2022-07-30T12:58:08.688Z,99745.84
2022-07-30T13:01:03.851Z,99737.66
2022-07-30T13:03:39.366Z,99733.72
2022-07-30T13:06:28.611Z,99731.53
2022-07-30T13:08:59.771Z,99734.41
2022-07-30T13:11:48.666Z,99723.88
2022-07-30T13:14:17.968Z,99727.03
2022-07-30T13:16:46.005Z,99722.13
2022-07-30T13:19:13.633Z,99719.13
2022-07-30T13:21:49.793Z,99712.00
2022-07-30T13:24:19.428Z,99710.31
2022-07-30T13:26:53.237Z,99715.50
2022-07-30T13:29:27.962Z,99705.69
2022-07-30T13:31:58.281Z,99707.22
2022-07-30T13:34:25.943Z,99700.09
2022-07-30T13:36:53.577Z,99705.09
2022-07-30T13:39:21.376Z,99699.78
2022-07-30T13:41:48.709Z,99699.78
2022-07-30T13:44:17.732Z,99692.22
2022-07-30T13:46:45.750Z,99698.75
2022-07-30T13:49:16.303Z,99684.31
2022-07-30T13:51:46.346Z,99687.41
2022-07-30T13:54:23.590Z,99681.03
2022-07-30T13:56:51.293Z,99681.09
2022-07-30T13:59:18.820Z,99675.50
2022-07-30T14:01:51.066Z,99669.34
2022-07-30T14:04:18.643Z,99674.00
2022-07-30T14:06:48.399Z,99664.22
2022-07-30T14:09:23.975Z,99668.88
2022-07-30T14:12:00.516Z,99664.19
2022-07-30T14:14:33.676Z,99666.81
2022-07-30T14:17:01.530Z,99646.88
2022-07-30T14:19:29.306Z,99646.72
2022-07-30T14:21:58.949Z,99645.75
2022-07-30T14:24:26.643Z,99650.44
2022-07-30T14:26:58.359Z,99636.31
2022-07-30T14:29:29.454Z,99643.84
2022-07-30T14:31:59.446Z,99636.16
2022-07-30T14:34:26.991Z,99634.72
2022-07-30T14:36:54.504Z,99636.84
2022-07-30T14:39:22.385Z,99637.41
2022-07-30T14:41:55.659Z,99634.97
2022-07-30T14:44:24.016Z,99638.88
2022-07-30T14:46:54.329Z,99631.56
2022-07-30T14:49:23.947Z,99629.16
2022-07-30T14:51:52.768Z,99627.97
2022-07-30T14:54:21.041Z,99618.72
2022-07-30T14:56:56.159Z,99615.69
2022-07-30T14:59:35.255Z,99612.03
2022-07-30T15:02:10.925Z,99614.19
2022-07-30T15:04:48.956Z,99620.50
2022-07-30T15:07:20.045Z,99609.50
2022-07-30T15:09:47.510Z,99621.63
2022-07-30T15:12:19.291Z,99613.69
2022-07-30T15:14:54.794Z,99615.44
2022-07-30T15:17:23.347Z,99615.69
2022-07-30T15:19:51.572Z,99606.16
2022-07-30T15:22:20.507Z,99615.09
2022-07-30T15:24:48.840Z,99611.22
2022-07-30T15:27:16.671Z,99599.66
2022-07-30T15:29:44.610Z,99607.25
2022-07-30T15:32:19.313Z,99605.53
2022-07-30T15:34:49.369Z,99607.56
2022-07-30T15:37:17.345Z,99609.34
2022-07-30T15:39:48.944Z,99602.97
2022-07-30T15:42:17.915Z,99608.66
2022-07-30T15:44:48.594Z,99607.16
2022-07-30T15:47:17.161Z,99597.94
2022-07-30T15:49:44.927Z,99598.81
2022-07-30T15:52:13.014Z,99609.09
2022-07-30T15:54:41.024Z,99604.06
2022-07-30T15:57:08.572Z,99606.78
2022-07-30T15:59:36.205Z,99610.28
2022-07-30T16:02:04.109Z,99620.34
2022-07-30T16:04:34.445Z,99620.69
2022-07-30T16:07:04.152Z,99606.88
2022-07-30T16:09:31.853Z,99605.81
2022-07-30T16:11:59.562Z,99623.47
2022-07-30T16:14:27.848Z,99613.44
2022-07-30T16:16:58.665Z,99626.31
2022-07-30T16:19:29.509Z,99610.16
2022-07-30T16:21:57.204Z,99615.19
2022-07-30T16:24:26.242Z,99619.28
2022-07-30T16:26:53.849Z,99613.97
2022-07-30T16:29:21.295Z,99612.50
2022-07-30T16:31:48.871Z,99611.91
2022-07-30T16:34:17.920Z,99606.56
2022-07-30T16:36:54.187Z,99600.59
2022-07-30T16:39:22.303Z,99603.81
2022-07-30T16:41:50.229Z,99606.84
2022-07-30T16:44:17.813Z,99606.94
2022-07-30T16:46:45.247Z,99599.16
2022-07-30T16:49:12.711Z,99600.41
2022-07-30T16:51:40.925Z,99601.72
2022-07-30T16:54:08.512Z,99596.97
2022-07-30T16:56:35.930Z,99607.41
2022-07-30T16:59:03.462Z,99604.34
2022-07-30T17:01:32.243Z,99607.06
2022-07-30T17:03:59.790Z,99603.03
2022-07-30T17:06:27.696Z,99600.59
2022-07-30T17:08:55.592Z,99593.28
2022-07-30T17:11:51.880Z,99597.78
2022-07-30T17:14:13.110Z,99590.53
2022-07-30T17:16:40.904Z,99599.63
2022-07-30T17:19:09.608Z,99602.72
2022-07-30T17:21:40.326Z,99599.53
2022-07-30T17:24:11.826Z,99602.38
2022-07-30T17:26:43.420Z,99599.75
2022-07-30T17:29:16.552Z,99596.47
2022-07-30T17:31:46.109Z,99600.69
2022-07-30T17:34:18.323Z,99604.56
2022-07-30T17:36:52.252Z,99606.38
2022-07-30T17:40:01.657Z,99609.66
2022-07-30T17:42:11.856Z,99613.47
2022-07-30T17:44:43.376Z,99617.34
2022-07-30T17:47:14.490Z,99618.16
2022-07-30T17:49:42.489Z,99621.38
2022-07-30T17:52:09.937Z,99617.38
2022-07-30T17:54:38.039Z,99624.06
2022-07-30T17:57:05.683Z,99627.88
2022-07-30T17:59:33.701Z,99626.91
2022-07-30T18:02:01.817Z,99632.03
2022-07-30T18:04:29.667Z,99634.63
2022-07-30T18:06:57.508Z,99634.13
2022-07-30T18:09:25.116Z,99631.38
2022-07-30T18:11:53.076Z,99636.44
2022-07-30T18:14:24.184Z,99639.63
2022-07-30T18:16:54.432Z,99648.22
2022-07-30T18:19:22.896Z,99645.13
2022-07-30T18:21:55.102Z,99648.19
2022-07-30T18:24:24.552Z,99643.16
2022-07-30T18:26:53.097Z,99650.66
2022-07-30T18:29:21.127Z,99653.09
2022-07-30T18:31:48.994Z,99655.41
2022-07-30T18:34:16.616Z,99660.22
2022-07-30T18:36:44.411Z,99658.72
2022-07-30T18:39:12.228Z,99653.69
2022-07-30T18:41:39.916Z,99672.03
2022-07-30T18:44:07.455Z,99664.41
2022-07-30T18:46:35.690Z,99676.50
2022-07-30T18:49:15.453Z,99668.53
2022-07-30T18:51:50.888Z,99675.06
2022-07-30T18:54:18.577Z,99674.34
2022-07-30T18:56:46.017Z,99681.03
2022-07-30T18:59:14.842Z,99684.22
2022-07-30T19:01:43.754Z,99680.81
2022-07-30T19:04:11.561Z,99687.13
2022-07-30T19:06:39.100Z,99685.84
2022-07-30T19:09:13.021Z,99695.38
2022-07-30T19:11:45.745Z,99691.84
2022-07-30T19:14:14.639Z,99690.28
2022-07-30T19:16:44.522Z,99697.88
2022-07-30T19:19:13.724Z,99705.94
2022-07-30T19:21:41.843Z,99710.72
2022-07-30T19:24:10.286Z,99716.22
2022-07-30T19:26:39.416Z,99728.06
2022-07-30T19:29:08.192Z,99732.94
2022-07-30T19:31:36.620Z,99736.88
2022-07-30T19:34:04.981Z,99746.81
2022-07-30T19:36:33.627Z,99747.94
2022-07-30T19:39:06.955Z,99758.13
2022-07-30T19:41:42.111Z,99752.09
2022-07-30T19:44:12.002Z,99762.94
2022-07-30T19:46:41.516Z,99767.53
2022-07-30T19:49:10.920Z,99763.22
2022-07-30T19:52:07.302Z,99770.47
2022-07-30T19:54:26.026Z,99768.03
2022-07-30T19:56:53.246Z,99774.53
2022-07-30T19:59:43.736Z,99783.72
2022-07-30T20:02:08.462Z,99784.75
2022-07-30T20:04:37.640Z,99786.56
2022-07-30T20:07:05.263Z,99793.84
2022-07-30T20:09:32.895Z,99796.63
2022-07-30T20:12:02.451Z,99803.78
2022-07-30T20:14:30.090Z,99798.41
2022-07-30T20:17:01.950Z,99805.69
2022-07-30T20:19:36.042Z,99804.22
2022-07-30T20:22:04.951Z,99809.75
2022-07-30T20:24:34.512Z,99811.81
2022-07-30T20:27:38.593Z,99813.94
2022-07-30T20:29:58.366Z,99813.34
2022-07-30T20:32:26.263Z,99815.25
2022-07-30T20:34:55.422Z,99816.25
2022-07-30T20:37:23.389Z,99821.69
2022-07-30T20:39:58.440Z,99824.34
2022-07-30T20:42:28.022Z,99826.25
2022-07-30T20:44:57.972Z,99829.09
2022-07-30T20:47:34.633Z,99825.66
2022-07-30T20:50:14.423Z,99825.84
2022-07-30T20:52:51.169Z,99833.97
2022-07-30T20:55:24.788Z,99826.84
2022-07-30T20:58:11.176Z,99827.81
2022-07-30T21:00:50.006Z,99838.69
2022-07-30T21:03:22.117Z,99834.34
2022-07-30T21:05:56.499Z,99835.25
2022-07-30T21:08:26.590Z,99844.25
2022-07-30T21:11:04.698Z,99849.72
2022-07-30T21:13:35.600Z,99854.25
2022-07-30T21:16:15.451Z,99863.22
2022-07-30T21:18:49.972Z,99865.00
2022-07-30T21:21:30.645Z,99859.63
2022-07-30T21:24:14.927Z,99864.81
2022-07-30T21:26:52.430Z,99862.06
2022-07-30T21:29:20.800Z,99862.00
2022-07-30T21:32:03.067Z,99864.75
2022-07-30T21:34:40.343Z,99867.47
2022-07-30T21:37:15.553Z,99864.78
2022-07-30T21:39:46.124Z,99869.25
2022-07-30T21:42:30.123Z,99873.63
2022-07-30T21:45:00.535Z,99870.03
2022-07-30T21:47:33.558Z,99878.06
2022-07-30T21:50:10.872Z,99878.03
2022-07-30T21:52:46.810Z,99871.75
2022-07-30T21:55:17.602Z,99867.16
2022-07-30T21:57:57.739Z,99877.69
2022-07-30T22:01:17.895Z,99875.94
2022-07-30T22:04:02.075Z,99874.97
2022-07-30T22:06:44.704Z,99879.50
2022-07-30T22:09:34.242Z,99893.72
2022-07-30T22:12:12.277Z,99886.56
2022-07-30T22:15:15.460Z,99886.66
2022-07-30T22:17:58.671Z,99892.84
2022-07-30T22:20:37.735Z,99896.53
2022-07-30T22:23:13.564Z,99905.66
2022-07-30T22:25:46.688Z,99898.75
2022-07-30T22:28:22.904Z,99906.03
2022-07-30T22:30:56.237Z,99897.16
2022-07-30T22:33:32.015Z,99903.47
2022-07-30T22:39:02.929Z,99908.16
2022-07-30T22:41:41.953Z,99905.53
2022-07-30T22:44:12.944Z,99903.84
2022-07-30T22:46:56.054Z,99907.44
2022-07-30T22:49:45.918Z,99910.16
2022-07-30T22:52:30.325Z,99905.78
2022-07-30T22:55:22.162Z,99915.56
2022-07-30T22:57:54.042Z,99912.91
2022-07-30T23:03:27.859Z,99920.09
2022-07-30T23:06:01.385Z,99922.81
2022-07-30T23:08:36.821Z,99921.97
2022-07-30T23:11:21.536Z,99917.50
2022-07-30T23:12:31.991Z,99901.78
2022-07-30T23:12:34.370Z,99915.59
2022-07-30T23:14:02.141Z,99931.75
2022-07-30T23:16:34.324Z,99933.53
2022-07-30T23:19:21.786Z,99931.75
2022-07-30T23:22:04.361Z,99931.78
2022-07-30T23:24:47.077Z,99934.41
2022-07-30T23:27:17.900Z,99931.75
2022-07-30T23:29:51.045Z,99935.31
2022-07-30T23:32:24.718Z,99933.53
2022-07-30T23:34:55.004Z,99933.53
2022-07-30T23:37:47.704Z,99934.41
2022-07-30T23:40:25.374Z,99928.19
2022-07-30T23:42:56.566Z,99927.34
2022-07-30T23:45:30.285Z,99924.66
2022-07-30T23:48:02.386Z,99933.53
2022-07-30T23:50:36.420Z,99930.88
2022-07-30T23:53:07.503Z,99934.44
2022-07-30T23:55:42.542Z,99931.78
2022-07-30T23:58:27.617Z,99934.44
